OVO0649 ZBAA-ZPPP
Flight info
| Callsign | OVO0649 |
|---|---|
| Flight time | 2h 32m |
| Altitude | 38100 |
| Route | BOTPU W47 LOVRA W276 ARELA W30 MEBNA |
| Aircraft | A339/H-SADE1E2E3GHIJ1J3J5M1P2RWXY/LB2D1 |
Departure
| Time | 2026-05-04 09:10 |
|---|---|
| Airport | Beijing Capital International Airport (ZBAA) |
Arrival
| Time | 2026-05-04 11:42 |
|---|---|
| Airport | Kunming Changshui International Airport (ZPPP) |
| Time | Latitude | Longitude | Altitude | Speed | Heading |
|---|---|---|---|---|---|
| 2026-05-04 08:42 | 31.14676 | 121.79828 | 42 ft | 0 kts | 73° |
| 2026-05-04 08:46 | 40.05913 | 116.60386 | 130 ft | 0 kts | 263° |
| 2026-05-04 09:01 | 40.05864 | 116.60486 | 131 ft | 0 kts | 354° |
| 2026-05-04 09:02 | 40.05880 | 116.60484 | 131 ft | 4 kts | 354° |
| 2026-05-04 09:02 | 40.05926 | 116.60477 | 131 ft | 8 kts | 354° |
| 2026-05-04 09:02 | 40.05998 | 116.60468 | 131 ft | 12 kts | 354° |
| 2026-05-04 09:02 | 40.06092 | 116.60450 | 131 ft | 17 kts | 351° |
| 2026-05-04 09:03 | 40.06178 | 116.60396 | 131 ft | 12 kts | 290° |
| 2026-05-04 09:03 | 40.06185 | 116.60261 | 131 ft | 17 kts | 265° |
| 2026-05-04 09:03 | 40.06210 | 116.60150 | 131 ft | 12 kts | 324° |
| 2026-05-04 09:03 | 40.06294 | 116.60122 | 131 ft | 14 kts | 353° |
| 2026-05-04 09:04 | 40.06410 | 116.60107 | 131 ft | 19 kts | 355° |
| 2026-05-04 09:04 | 40.06557 | 116.60087 | 131 ft | 22 kts | 353° |
| 2026-05-04 09:04 | 40.06713 | 116.60060 | 131 ft | 21 kts | 354° |
| 2026-05-04 09:04 | 40.06860 | 116.60036 | 131 ft | 21 kts | 353° |
| 2026-05-04 09:05 | 40.07006 | 116.60014 | 131 ft | 20 kts | 353° |
| 2026-05-04 09:05 | 40.07150 | 116.59990 | 131 ft | 21 kts | 353° |
| 2026-05-04 09:05 | 40.07300 | 116.59966 | 131 ft | 21 kts | 353° |
| 2026-05-04 09:05 | 40.07445 | 116.59947 | 131 ft | 20 kts | 358° |
| 2026-05-04 09:06 | 40.07583 | 116.59931 | 131 ft | 19 kts | 354° |
| 2026-05-04 09:07 | 40.08503 | 116.59785 | 131 ft | 19 kts | 353° |
| 2026-05-04 09:08 | 40.08640 | 116.59763 | 131 ft | 19 kts | 353° |
| 2026-05-04 09:08 | 40.08774 | 116.59742 | 131 ft | 19 kts | 353° |
| 2026-05-04 09:08 | 40.08871 | 116.59679 | 131 ft | 9 kts | 295° |
| 2026-05-04 09:08 | 40.08879 | 116.59592 | 131 ft | 10 kts | 263° |
| 2026-05-04 09:09 | 40.08840 | 116.59513 | 131 ft | 10 kts | 196° |
| 2026-05-04 09:09 | 40.08766 | 116.59516 | 131 ft | 14 kts | 174° |
| 2026-05-04 09:09 | 40.08404 | 116.59570 | 131 ft | 89 kts | 174° |
| 2026-05-04 09:09 | 40.07558 | 116.59697 | 131 ft | 152 kts | 174° |
| 2026-05-04 09:10 | 40.06370 | 116.59924 | 337 ft | 186 kts | 173° |
| 2026-05-04 09:10 | 40.05110 | 116.60144 | 1002 ft | 179 kts | 175° |
| 2026-05-04 09:10 | 40.03933 | 116.60311 | 1774 ft | 165 kts | 176° |
| 2026-05-04 09:10 | 40.02813 | 116.60473 | 2256 ft | 170 kts | 175° |
| 2026-05-04 09:11 | 40.01577 | 116.60654 | 2560 ft | 186 kts | 175° |
| 2026-05-04 09:11 | 40.00232 | 116.60854 | 2863 ft | 203 kts | 175° |
| 2026-05-04 09:11 | 39.98782 | 116.61074 | 3172 ft | 220 kts | 175° |
| 2026-05-04 09:11 | 39.97181 | 116.61319 | 3499 ft | 238 kts | 175° |
| 2026-05-04 09:12 | 39.95506 | 116.61580 | 3952 ft | 249 kts | 175° |
| 2026-05-04 09:12 | 39.93746 | 116.61857 | 4590 ft | 252 kts | 175° |
| 2026-05-04 09:14 | 39.80906 | 116.63848 | 8457 ft | 284 kts | 176° |
| 2026-05-04 09:14 | 39.78917 | 116.64151 | 8968 ft | 289 kts | 176° |
| 2026-05-04 09:14 | 39.76903 | 116.64458 | 9477 ft | 294 kts | 177° |
| 2026-05-04 09:14 | 39.74853 | 116.64768 | 9987 ft | 299 kts | 176° |
| 2026-05-04 09:15 | 39.72794 | 116.65080 | 10534 ft | 302 kts | 176° |
| 2026-05-04 09:15 | 39.70699 | 116.65353 | 11087 ft | 303 kts | 183° |
| 2026-05-04 09:15 | 39.68642 | 116.64861 | 11618 ft | 299 kts | 208° |
| 2026-05-04 09:15 | 39.66951 | 116.63435 | 12171 ft | 292 kts | 230° |
| 2026-05-04 09:17 | 39.64399 | 116.43343 | 16326 ft | 300 kts | 268° |
| 2026-05-04 09:18 | 39.64227 | 116.40653 | 16805 ft | 304 kts | 268° |
| 2026-05-04 09:18 | 39.64050 | 116.37910 | 17294 ft | 307 kts | 268° |
| 2026-05-04 09:18 | 39.63870 | 116.35149 | 17788 ft | 311 kts | 267° |
| 2026-05-04 09:18 | 39.63686 | 116.32333 | 18265 ft | 314 kts | 266° |
| 2026-05-04 09:19 | 39.63494 | 116.29449 | 18529 ft | 326 kts | 266° |
| 2026-05-04 09:19 | 39.63296 | 116.26466 | 18765 ft | 339 kts | 266° |
| 2026-05-04 09:19 | 39.63092 | 116.23399 | 19012 ft | 352 kts | 266° |
| 2026-05-04 09:19 | 39.62877 | 116.20177 | 19250 ft | 365 kts | 266° |
| 2026-05-04 09:20 | 39.62653 | 116.16821 | 19487 ft | 378 kts | 266° |
| 2026-05-04 09:20 | 39.62424 | 116.13402 | 19746 ft | 389 kts | 266° |
| 2026-05-04 09:20 | 39.62186 | 116.09869 | 20199 ft | 395 kts | 266° |
| 2026-05-04 09:20 | 39.61944 | 116.06303 | 20771 ft | 398 kts | 266° |
| 2026-05-04 09:21 | 39.61702 | 116.02740 | 21317 ft | 400 kts | 266° |
| 2026-05-04 09:21 | 39.61455 | 115.99148 | 21856 ft | 403 kts | 266° |
| 2026-05-04 09:21 | 39.61206 | 115.95522 | 22375 ft | 406 kts | 266° |
| 2026-05-04 09:21 | 39.60957 | 115.91930 | 22870 ft | 408 kts | 266° |
| 2026-05-04 09:22 | 39.60702 | 115.88223 | 23378 ft | 411 kts | 267° |
| 2026-05-04 09:22 | 39.60727 | 115.84547 | 23808 ft | 411 kts | 279° |
| 2026-05-04 09:22 | 39.61340 | 115.80969 | 24290 ft | 411 kts | 290° |
| 2026-05-04 09:22 | 39.62495 | 115.77560 | 24754 ft | 411 kts | 299° |
| 2026-05-04 09:23 | 39.63849 | 115.74300 | 25198 ft | 414 kts | 300° |
| 2026-05-04 09:23 | 39.65235 | 115.71020 | 25631 ft | 416 kts | 300° |
| 2026-05-04 09:23 | 39.66671 | 115.67795 | 26023 ft | 417 kts | 306° |
| 2026-05-04 09:23 | 39.68593 | 115.64995 | 26413 ft | 417 kts | 319° |
| 2026-05-04 09:25 | 39.87085 | 115.53860 | 29053 ft | 428 kts | 337° |
| 2026-05-04 09:25 | 39.89835 | 115.52329 | 29410 ft | 429 kts | 335° |
| 2026-05-04 09:26 | 39.92394 | 115.50410 | 29712 ft | 431 kts | 324° |
| 2026-05-04 09:26 | 39.94667 | 115.47842 | 30015 ft | 434 kts | 315° |
| 2026-05-04 09:26 | 39.96554 | 115.44755 | 30314 ft | 437 kts | 305° |
| 2026-05-04 09:26 | 39.97987 | 115.41239 | 30603 ft | 442 kts | 295° |
| 2026-05-04 09:27 | 39.98901 | 115.37455 | 30910 ft | 446 kts | 284° |
| 2026-05-04 09:27 | 39.99294 | 115.33466 | 31274 ft | 448 kts | 277° |
| 2026-05-04 09:27 | 39.99513 | 115.29392 | 31733 ft | 446 kts | 277° |
| 2026-05-04 09:27 | 39.99709 | 115.25390 | 32185 ft | 444 kts | 277° |
| 2026-05-04 09:28 | 39.99903 | 115.21397 | 32578 ft | 443 kts | 277° |
| 2026-05-04 09:28 | 40.00099 | 115.17402 | 32940 ft | 442 kts | 277° |
| 2026-05-04 09:28 | 40.00293 | 115.13465 | 33283 ft | 441 kts | 277° |
| 2026-05-04 09:28 | 40.00492 | 115.09463 | 33627 ft | 440 kts | 277° |
| 2026-05-04 09:29 | 40.00689 | 115.05486 | 33988 ft | 439 kts | 277° |
| 2026-05-04 09:29 | 40.00882 | 115.01541 | 34325 ft | 438 kts | 277° |
| 2026-05-04 09:29 | 40.01075 | 114.97598 | 34638 ft | 437 kts | 277° |
| 2026-05-04 09:29 | 40.01268 | 114.93664 | 34899 ft | 436 kts | 277° |
| 2026-05-04 09:30 | 40.01456 | 114.89745 | 35140 ft | 435 kts | 277° |
| 2026-05-04 09:30 | 40.01645 | 114.85825 | 35381 ft | 434 kts | 277° |
| 2026-05-04 09:30 | 40.01832 | 114.81911 | 35617 ft | 433 kts | 277° |
| 2026-05-04 09:30 | 40.02015 | 114.78030 | 35829 ft | 433 kts | 277° |
| 2026-05-04 09:31 | 40.02200 | 114.74128 | 36035 ft | 432 kts | 277° |
| 2026-05-04 09:31 | 40.02381 | 114.70218 | 36241 ft | 432 kts | 277° |
| 2026-05-04 09:31 | 40.02564 | 114.66314 | 36442 ft | 432 kts | 277° |
| 2026-05-04 09:31 | 40.02743 | 114.62419 | 36648 ft | 432 kts | 277° |
| 2026-05-04 09:32 | 40.02922 | 114.58502 | 36839 ft | 433 kts | 277° |
| 2026-05-04 09:32 | 40.03099 | 114.54589 | 37015 ft | 434 kts | 277° |
| 2026-05-04 09:34 | 40.04307 | 114.27053 | 38033 ft | 438 kts | 276° |
| 2026-05-04 09:34 | 40.04474 | 114.23124 | 38045 ft | 439 kts | 276° |
| 2026-05-04 09:34 | 40.04813 | 114.15156 | 38034 ft | 439 kts | 277° |
| 2026-05-04 09:35 | 40.05365 | 114.07299 | 38029 ft | 438 kts | 279° |
| 2026-05-04 09:35 | 40.05952 | 113.99396 | 38016 ft | 437 kts | 279° |
| 2026-05-04 09:37 | 40.08221 | 113.67910 | 38025 ft | 437 kts | 279° |
| 2026-05-04 09:38 | 40.08777 | 113.60002 | 38038 ft | 437 kts | 279° |
| 2026-05-04 09:38 | 40.09323 | 113.52162 | 38052 ft | 437 kts | 279° |
| 2026-05-04 09:39 | 40.09867 | 113.44257 | 38062 ft | 437 kts | 279° |
| 2026-05-04 09:39 | 40.10403 | 113.36394 | 38052 ft | 437 kts | 279° |
| 2026-05-04 09:40 | 40.10936 | 113.28486 | 38056 ft | 437 kts | 278° |
| 2026-05-04 09:40 | 40.11460 | 113.20617 | 38054 ft | 437 kts | 278° |
| 2026-05-04 09:42 | 40.13513 | 112.89082 | 38098 ft | 438 kts | 278° |
| 2026-05-04 09:43 | 40.14011 | 112.81207 | 38110 ft | 438 kts | 278° |
| 2026-05-04 09:43 | 40.14507 | 112.73286 | 38113 ft | 438 kts | 278° |
| 2026-05-04 09:44 | 40.14995 | 112.65362 | 38133 ft | 437 kts | 278° |
| 2026-05-04 09:46 | 40.12883 | 112.33677 | 38113 ft | 451 kts | 255° |
| 2026-05-04 09:46 | 40.10766 | 112.26016 | 38098 ft | 452 kts | 255° |
| 2026-05-04 09:47 | 40.08626 | 112.18322 | 38112 ft | 453 kts | 255° |
| 2026-05-04 09:49 | 39.99264 | 111.87798 | 38121 ft | 461 kts | 243° |
| 2026-05-04 09:51 | 39.83245 | 111.66866 | 38114 ft | 473 kts | 224° |
| 2026-05-04 09:51 | 39.76321 | 111.59414 | 38101 ft | 473 kts | 225° |
| 2026-05-04 09:52 | 39.68745 | 111.51257 | 38115 ft | 473 kts | 224° |
| 2026-05-04 09:52 | 39.61192 | 111.43147 | 38092 ft | 473 kts | 225° |
| 2026-05-04 09:53 | 39.53599 | 111.35013 | 38089 ft | 472 kts | 224° |
| 2026-05-04 09:53 | 39.45970 | 111.26868 | 38078 ft | 473 kts | 224° |
| 2026-05-04 09:54 | 39.38387 | 111.18798 | 38077 ft | 473 kts | 224° |
| 2026-05-04 09:54 | 39.30790 | 111.10731 | 38046 ft | 473 kts | 224° |
| 2026-05-04 09:55 | 39.23199 | 111.02625 | 38048 ft | 470 kts | 228° |
| 2026-05-04 09:55 | 39.20003 | 110.97952 | 38040 ft | 461 kts | 240° |
| 2026-05-04 09:55 | 39.17716 | 110.92548 | 38036 ft | 453 kts | 253° |
| 2026-05-04 09:55 | 39.16412 | 110.86774 | 38048 ft | 446 kts | 265° |
| 2026-05-04 09:56 | 39.16047 | 110.80848 | 38046 ft | 440 kts | 276° |
| 2026-05-04 09:56 | 39.16823 | 110.69156 | 38078 ft | 439 kts | 278° |
| 2026-05-04 09:57 | 39.17524 | 110.57468 | 38060 ft | 439 kts | 277° |
| 2026-05-04 09:57 | 39.18075 | 110.45689 | 38058 ft | 440 kts | 277° |
| 2026-05-04 09:58 | 39.18595 | 110.33961 | 38064 ft | 440 kts | 276° |
| 2026-05-04 09:58 | 39.19111 | 110.22109 | 38042 ft | 441 kts | 276° |
| 2026-05-04 10:00 | 39.21315 | 109.75013 | 38075 ft | 441 kts | 276° |
| 2026-05-04 10:02 | 39.04887 | 109.45203 | 38075 ft | 488 kts | 190° |
| 2026-05-04 10:04 | 38.70043 | 109.37035 | 38068 ft | 485 kts | 194° |
| 2026-05-04 10:04 | 38.60076 | 109.34583 | 38071 ft | 485 kts | 194° |
| 2026-05-04 10:05 | 38.50118 | 109.32140 | 38069 ft | 485 kts | 194° |
| 2026-05-04 10:05 | 38.40243 | 109.29765 | 38060 ft | 486 kts | 192° |
| 2026-05-04 10:06 | 38.30122 | 109.28645 | 38063 ft | 488 kts | 185° |
| 2026-05-04 10:06 | 38.19973 | 109.28156 | 38056 ft | 488 kts | 185° |
| 2026-05-04 10:08 | 37.84409 | 109.26002 | 38059 ft | 488 kts | 185° |
| 2026-05-04 10:08 | 37.74239 | 109.25414 | 38065 ft | 489 kts | 186° |
| 2026-05-04 10:09 | 37.64021 | 109.24810 | 38072 ft | 489 kts | 186° |
| 2026-05-04 10:09 | 37.53830 | 109.24211 | 38090 ft | 489 kts | 186° |
| 2026-05-04 10:10 | 37.43662 | 109.23615 | 38101 ft | 489 kts | 186° |
| 2026-05-04 10:10 | 37.33491 | 109.23021 | 38113 ft | 489 kts | 186° |
| 2026-05-04 10:11 | 37.23309 | 109.22430 | 38107 ft | 490 kts | 186° |
| 2026-05-04 10:11 | 37.13038 | 109.21832 | 38110 ft | 491 kts | 186° |
| 2026-05-04 10:12 | 37.02821 | 109.21242 | 38094 ft | 491 kts | 186° |
| 2026-05-04 10:12 | 36.92233 | 109.20632 | 38100 ft | 492 kts | 186° |
| 2026-05-04 10:13 | 36.80650 | 109.19962 | 38092 ft | 492 kts | 186° |
| 2026-05-04 10:13 | 36.69031 | 109.19297 | 38091 ft | 492 kts | 186° |
| 2026-05-04 10:14 | 36.57437 | 109.18636 | 38096 ft | 494 kts | 186° |
| 2026-05-04 10:16 | 36.10733 | 109.15692 | 38116 ft | 495 kts | 187° |
| 2026-05-04 10:16 | 35.99012 | 109.14915 | 38110 ft | 496 kts | 187° |
| 2026-05-04 10:17 | 35.87316 | 109.13880 | 38100 ft | 494 kts | 192° |
| 2026-05-04 10:19 | 35.49307 | 108.98276 | 38109 ft | 484 kts | 205° |
| 2026-05-04 10:19 | 35.43967 | 108.95922 | 38111 ft | 484 kts | 205° |
| 2026-05-04 10:19 | 35.33188 | 108.91178 | 38110 ft | 484 kts | 205° |
| 2026-05-04 10:20 | 35.22426 | 108.86446 | 38111 ft | 484 kts | 205° |
| 2026-05-04 10:20 | 35.11621 | 108.81710 | 38099 ft | 483 kts | 205° |
| 2026-05-04 10:21 | 35.00875 | 108.77010 | 38082 ft | 483 kts | 205° |
| 2026-05-04 10:21 | 34.90139 | 108.72331 | 38082 ft | 484 kts | 205° |
| 2026-05-04 10:22 | 34.74003 | 108.65327 | 38062 ft | 485 kts | 205° |
| 2026-05-04 10:23 | 34.63155 | 108.60631 | 38042 ft | 484 kts | 205° |
| 2026-05-04 10:25 | 34.20070 | 108.42105 | 38036 ft | 484 kts | 206° |
| 2026-05-04 10:25 | 34.09250 | 108.37489 | 38105 ft | 484 kts | 206° |
| 2026-05-04 10:26 | 33.98449 | 108.32889 | 38178 ft | 485 kts | 205° |
| 2026-05-04 10:26 | 33.87566 | 108.28265 | 38208 ft | 484 kts | 205° |
| 2026-05-04 10:27 | 33.76771 | 108.23698 | 38246 ft | 485 kts | 206° |
| 2026-05-04 10:27 | 33.66009 | 108.19153 | 38227 ft | 483 kts | 206° |
| 2026-05-04 10:28 | 33.55220 | 108.14606 | 38176 ft | 483 kts | 206° |
| 2026-05-04 10:28 | 33.44454 | 108.10087 | 38155 ft | 483 kts | 206° |
| 2026-05-04 10:29 | 33.33507 | 108.05908 | 38148 ft | 486 kts | 204° |
| 2026-05-04 10:29 | 33.22545 | 108.02042 | 38147 ft | 486 kts | 203° |
| 2026-05-04 10:30 | 33.11471 | 107.98116 | 38151 ft | 485 kts | 204° |
| 2026-05-04 10:30 | 33.00524 | 107.94222 | 38162 ft | 485 kts | 204° |
| 2026-05-04 10:31 | 32.89554 | 107.90335 | 38153 ft | 484 kts | 204° |
| 2026-05-04 10:32 | 32.51159 | 107.76805 | 38165 ft | 484 kts | 204° |
| 2026-05-04 10:33 | 32.40125 | 107.72945 | 38156 ft | 483 kts | 204° |
| 2026-05-04 10:33 | 32.29189 | 107.69124 | 38149 ft | 483 kts | 204° |
| 2026-05-04 10:34 | 32.18290 | 107.65329 | 38166 ft | 482 kts | 204° |
| 2026-05-04 10:34 | 32.07386 | 107.61535 | 38165 ft | 480 kts | 205° |
| 2026-05-04 10:35 | 31.96504 | 107.57764 | 38176 ft | 479 kts | 205° |
| 2026-05-04 10:35 | 31.87297 | 107.54576 | 38165 ft | 479 kts | 205° |
| 2026-05-04 10:36 | 31.80882 | 107.52363 | 38174 ft | 479 kts | 205° |
| 2026-05-04 10:36 | 31.74475 | 107.50156 | 38170 ft | 479 kts | 205° |
| 2026-05-04 10:37 | 31.68101 | 107.47961 | 38168 ft | 479 kts | 205° |
| 2026-05-04 10:37 | 31.61665 | 107.45750 | 38166 ft | 478 kts | 205° |
| 2026-05-04 10:39 | 31.39550 | 107.37725 | 38142 ft | 469 kts | 212° |
| 2026-05-04 10:40 | 31.33710 | 107.34481 | 38162 ft | 463 kts | 216° |
| 2026-05-04 10:40 | 31.28017 | 107.31076 | 38125 ft | 462 kts | 216° |
| 2026-05-04 10:41 | 31.22284 | 107.27651 | 38118 ft | 462 kts | 216° |
| 2026-05-04 10:41 | 31.16538 | 107.24227 | 38111 ft | 463 kts | 216° |
| 2026-05-04 10:42 | 31.10810 | 107.20818 | 38116 ft | 463 kts | 216° |
| 2026-05-04 10:42 | 31.05083 | 107.17418 | 38113 ft | 463 kts | 216° |
| 2026-05-04 10:43 | 30.99345 | 107.14013 | 38111 ft | 462 kts | 217° |
| 2026-05-04 10:45 | 30.76465 | 107.00486 | 38124 ft | 463 kts | 217° |
| 2026-05-04 10:45 | 30.70784 | 106.97013 | 38114 ft | 459 kts | 220° |
| 2026-05-04 10:46 | 30.65465 | 106.93028 | 38136 ft | 452 kts | 224° |
| 2026-05-04 10:46 | 30.60281 | 106.88885 | 38131 ft | 451 kts | 224° |
| 2026-05-04 10:47 | 30.55154 | 106.84793 | 38139 ft | 451 kts | 224° |
| 2026-05-04 10:47 | 30.49973 | 106.80664 | 38130 ft | 452 kts | 224° |
| 2026-05-04 10:49 | 30.29254 | 106.64210 | 38126 ft | 450 kts | 224° |
| 2026-05-04 10:50 | 30.24081 | 106.60149 | 38116 ft | 454 kts | 222° |
| 2026-05-04 10:51 | 30.01763 | 106.53787 | 38137 ft | 500 kts | 189° |
| 2026-05-04 10:52 | 29.98286 | 106.53802 | 38134 ft | 501 kts | 189° |
| 2026-05-04 10:52 | 29.91293 | 106.53841 | 38126 ft | 500 kts | 189° |
| 2026-05-04 10:54 | 29.63435 | 106.53895 | 38106 ft | 499 kts | 189° |
| 2026-05-04 10:56 | 29.35683 | 106.53929 | 38103 ft | 498 kts | 190° |
| 2026-05-04 10:57 | 29.28744 | 106.53937 | 38087 ft | 498 kts | 190° |
| 2026-05-04 10:57 | 29.21838 | 106.53946 | 38102 ft | 499 kts | 190° |
| 2026-05-04 10:58 | 29.14905 | 106.53957 | 38101 ft | 498 kts | 189° |
| 2026-05-04 10:58 | 29.07977 | 106.53969 | 38107 ft | 497 kts | 189° |
| 2026-05-04 10:59 | 29.01034 | 106.53979 | 38107 ft | 498 kts | 189° |
| 2026-05-04 10:59 | 28.94112 | 106.53984 | 38110 ft | 497 kts | 190° |
| 2026-05-04 11:00 | 28.87223 | 106.53986 | 38123 ft | 497 kts | 189° |
| 2026-05-04 11:02 | 28.59458 | 106.54007 | 38193 ft | 497 kts | 189° |
| 2026-05-04 11:05 | 28.10126 | 106.47941 | 38222 ft | 432 kts | 236° |
| 2026-05-04 11:06 | 28.06854 | 106.42455 | 38225 ft | 412 kts | 253° |
| 2026-05-04 11:06 | 28.04782 | 106.36430 | 38225 ft | 410 kts | 256° |
| 2026-05-04 11:10 | 27.90745 | 105.94171 | 38191 ft | 411 kts | 256° |
| 2026-05-04 11:12 | 27.82743 | 105.70036 | 38201 ft | 411 kts | 256° |
| 2026-05-04 11:12 | 27.80729 | 105.63994 | 38202 ft | 411 kts | 256° |
| 2026-05-04 11:13 | 27.78712 | 105.57939 | 38202 ft | 412 kts | 256° |
| 2026-05-04 11:13 | 27.76705 | 105.51925 | 38209 ft | 412 kts | 256° |
| 2026-05-04 11:16 | 27.66555 | 105.21719 | 38237 ft | 415 kts | 254° |
| 2026-05-04 11:16 | 27.64079 | 105.15799 | 38253 ft | 421 kts | 248° |
| 2026-05-04 11:17 | 27.60964 | 105.10201 | 38270 ft | 428 kts | 242° |
| 2026-05-04 11:19 | 27.46289 | 104.92916 | 38083 ft | 441 kts | 232° |
| 2026-05-04 11:19 | 27.44090 | 104.90524 | 37787 ft | 438 kts | 232° |
| 2026-05-04 11:19 | 27.41928 | 104.88171 | 37525 ft | 435 kts | 232° |
| 2026-05-04 11:19 | 27.39732 | 104.85785 | 37259 ft | 433 kts | 232° |
| 2026-05-04 11:20 | 27.37598 | 104.83465 | 36998 ft | 430 kts | 232° |
| 2026-05-04 11:20 | 27.35438 | 104.81115 | 36732 ft | 430 kts | 232° |
| 2026-05-04 11:20 | 27.33288 | 104.78777 | 36468 ft | 430 kts | 232° |
| 2026-05-04 11:20 | 27.31142 | 104.76446 | 36200 ft | 430 kts | 232° |
| 2026-05-04 11:22 | 27.15974 | 104.60100 | 34347 ft | 434 kts | 232° |
| 2026-05-04 11:22 | 27.13782 | 104.57756 | 34077 ft | 435 kts | 232° |
| 2026-05-04 11:23 | 27.11582 | 104.55403 | 33810 ft | 436 kts | 231° |
| 2026-05-04 11:23 | 27.09371 | 104.53041 | 33549 ft | 436 kts | 231° |
| 2026-05-04 11:24 | 26.96124 | 104.38914 | 32068 ft | 440 kts | 231° |
| 2026-05-04 11:25 | 26.93892 | 104.36540 | 31856 ft | 441 kts | 231° |
| 2026-05-04 11:25 | 26.91690 | 104.34198 | 31642 ft | 443 kts | 230° |
| 2026-05-04 11:25 | 26.89432 | 104.31798 | 31423 ft | 444 kts | 230° |
| 2026-05-04 11:26 | 26.84840 | 104.27069 | 30980 ft | 448 kts | 227° |
| 2026-05-04 11:27 | 26.68277 | 104.11574 | 29435 ft | 439 kts | 226° |
| 2026-05-04 11:28 | 26.65951 | 104.09405 | 29209 ft | 438 kts | 226° |
| 2026-05-04 11:28 | 26.63607 | 104.07217 | 28982 ft | 437 kts | 225° |
| 2026-05-04 11:28 | 26.61275 | 104.05045 | 28719 ft | 435 kts | 225° |
| 2026-05-04 11:28 | 26.58947 | 104.02877 | 28458 ft | 434 kts | 225° |
| 2026-05-04 11:29 | 26.56587 | 104.00681 | 28207 ft | 433 kts | 225° |
| 2026-05-04 11:29 | 26.54275 | 103.98531 | 27966 ft | 431 kts | 225° |
| 2026-05-04 11:29 | 26.52003 | 103.96419 | 27740 ft | 429 kts | 225° |
| 2026-05-04 11:29 | 26.49693 | 103.94272 | 27457 ft | 427 kts | 225° |
| 2026-05-04 11:31 | 26.32981 | 103.78775 | 24566 ft | 408 kts | 225° |
| 2026-05-04 11:33 | 25.93046 | 103.50703 | 19017 ft | 407 kts | 211° |
| 2026-05-04 11:33 | 25.86841 | 103.47147 | 17841 ft | 404 kts | 211° |
| 2026-05-04 11:33 | 25.80754 | 103.43679 | 17299 ft | 395 kts | 211° |
| 2026-05-04 11:34 | 25.74836 | 103.40314 | 15724 ft | 387 kts | 211° |
| 2026-05-04 11:34 | 25.69046 | 103.37013 | 13618 ft | 378 kts | 211° |
| 2026-05-04 11:34 | 25.63454 | 103.33845 | 12829 ft | 355 kts | 210° |
| 2026-05-04 11:34 | 25.58153 | 103.30853 | 12251 ft | 332 kts | 210° |
| 2026-05-04 11:35 | 25.53320 | 103.28127 | 12234 ft | 304 kts | 210° |
| 2026-05-04 11:35 | 25.48891 | 103.25610 | 12332 ft | 281 kts | 211° |
| 2026-05-04 11:35 | 25.45813 | 103.23709 | 12390 ft | 270 kts | 224° |
| 2026-05-04 11:35 | 25.44594 | 103.22230 | 12389 ft | 253 kts | 233° |
| 2026-05-04 11:36 | 25.43420 | 103.20825 | 12317 ft | 245 kts | 226° |
| 2026-05-04 11:36 | 25.42151 | 103.19572 | 12181 ft | 245 kts | 224° |
| 2026-05-04 11:36 | 25.40835 | 103.18362 | 11903 ft | 245 kts | 222° |
| 2026-05-04 11:36 | 25.39509 | 103.17179 | 11552 ft | 245 kts | 221° |
| 2026-05-04 11:37 | 25.38177 | 103.16008 | 11294 ft | 238 kts | 221° |
| 2026-05-04 11:37 | 25.36905 | 103.14900 | 11275 ft | 230 kts | 221° |
| 2026-05-04 11:37 | 25.35684 | 103.13841 | 11262 ft | 216 kts | 221° |
| 2026-05-04 11:37 | 25.34548 | 103.12857 | 11267 ft | 199 kts | 221° |
| 2026-05-04 11:38 | 25.33508 | 103.11958 | 11255 ft | 178 kts | 221° |
| 2026-05-04 11:38 | 25.32554 | 103.11131 | 11251 ft | 171 kts | 222° |
| 2026-05-04 11:38 | 25.31622 | 103.10319 | 11263 ft | 171 kts | 222° |
| 2026-05-04 11:38 | 25.30684 | 103.09503 | 11145 ft | 171 kts | 222° |
| 2026-05-04 11:39 | 25.29752 | 103.08692 | 10929 ft | 170 kts | 221° |
| 2026-05-04 11:39 | 25.28816 | 103.07879 | 10715 ft | 169 kts | 221° |
| 2026-05-04 11:40 | 25.18966 | 102.99312 | 8425 ft | 164 kts | 220° |
| 2026-05-04 11:41 | 25.16752 | 102.97383 | 7909 ft | 163 kts | 219° |
| 2026-05-04 11:41 | 25.15158 | 102.95995 | 7538 ft | 162 kts | 219° |
| 2026-05-04 11:41 | 25.14276 | 102.95227 | 7331 ft | 161 kts | 219° |
| 2026-05-04 11:41 | 25.13393 | 102.94458 | 7126 ft | 160 kts | 219° |
| 2026-05-04 11:42 | 25.12523 | 102.93700 | 6935 ft | 157 kts | 217° |
| 2026-05-04 11:42 | 25.11724 | 102.93011 | 6922 ft | 127 kts | 218° |
| 2026-05-04 11:42 | 25.11231 | 102.92643 | 6922 ft | 31 kts | 192° |
| 2026-05-04 11:42 | 25.11123 | 102.92632 | 6922 ft | 7 kts | 153° |
| 2026-05-04 11:43 | 25.11086 | 102.92670 | 6922 ft | 8 kts | 130° |
| 2026-05-04 11:43 | 25.11042 | 102.92735 | 6921 ft | 14 kts | 127° |